Foxboro, Wisconsin
Current Conditions -  °F | °C
As of 10:35 AM on Saturday 20 Dec 2014 (Local Time) from KSUW Reporting Station
Overcast Overcast  
Wind Chill: 25°   Ceiling: 1600
Heat Index: 31°   Visibility: 7mi
Dew Point: 26°   Wind: 6mph
Humidity: 84%   Direction: 180°S
Pressure: 30.15"   Gusts: NA
Location:  46.5°N, 92.29°W
Report Text: KSUW 201635Z AUTO 18005KT 7SM BKN016 OVC024 M01/M03 A3015 RMK AO2 T10071031
Loading
Personal Weather Stations






























Interactive Weather Map New forecast layout! Learn more

10-Day Weather Forecast

Advertisements
Track Severe Weather on mobile